createdAt,value
2019-05-22T00:00:58.020Z,35.10
2019-05-22T00:03:35.533Z,32.60
2019-05-22T00:06:06.825Z,29.87
2019-05-22T00:08:40.451Z,33.50
2019-05-22T00:11:13.197Z,31.37
2019-05-22T00:13:47.967Z,29.97
2019-05-22T00:16:22.131Z,30.47
2019-05-22T00:18:53.891Z,29.63
2019-05-22T00:21:25.471Z,29.23
2019-05-22T00:23:56.671Z,29.43
2019-05-22T00:26:28.522Z,28.97
2019-05-22T00:28:59.802Z,27.93
2019-05-22T00:31:31.746Z,27.30
2019-05-22T00:34:03.426Z,28.23
2019-05-22T00:36:34.883Z,27.00
2019-05-22T00:39:08.277Z,26.10
2019-05-22T00:41:40.567Z,26.70
2019-05-22T00:44:14.140Z,25.07
2019-05-22T00:46:46.179Z,25.73
2019-05-22T00:49:18.282Z,26.83
2019-05-22T00:52:09.041Z,25.87
2019-05-22T00:55:02.559Z,25.53
2019-05-22T00:57:44.000Z,25.90
2019-05-22T01:00:35.094Z,26.13
2019-05-22T01:03:07.846Z,28.40
2019-05-22T01:05:43.512Z,28.07
2019-05-22T01:08:16.388Z,28.30
2019-05-22T01:10:53.152Z,29.50
2019-05-22T01:13:27.868Z,32.30
2019-05-22T01:15:59.610Z,32.87
2019-05-22T01:18:31.736Z,33.63
2019-05-22T01:21:04.807Z,32.97
2019-05-22T01:23:39.036Z,33.97
2019-05-22T01:26:16.022Z,36.30
2019-05-22T01:28:50.147Z,35.90
2019-05-22T01:31:33.440Z,35.50
2019-05-22T01:34:16.437Z,36.53
2019-05-22T01:36:51.501Z,37.80
2019-05-22T01:39:45.506Z,36.10
2019-05-22T01:42:28.343Z,36.70
2019-05-22T01:45:06.612Z,37.30
2019-05-22T01:48:00.181Z,39.53
2019-05-22T01:50:51.174Z,37.57
2019-05-22T01:53:24.910Z,38.77
2019-05-22T01:55:59.531Z,37.63
2019-05-22T01:58:31.662Z,39.87
2019-05-22T02:01:06.981Z,37.33
2019-05-22T02:03:39.399Z,38.80
2019-05-22T02:06:12.258Z,38.70
2019-05-22T02:08:53.608Z,39.57
2019-05-22T02:11:27.384Z,37.50
2019-05-22T02:14:10.064Z,38.37
2019-05-22T02:16:56.137Z,38.20
2019-05-22T02:19:20.771Z,36.53
2019-05-22T02:21:53.365Z,37.70
2019-05-22T02:24:25.206Z,36.47
2019-05-22T02:26:57.345Z,36.93
2019-05-22T02:29:28.659Z,37.17
2019-05-22T02:32:00.542Z,36.33
2019-05-22T02:34:32.104Z,36.33
2019-05-22T02:37:03.362Z,36.00
2019-05-22T02:39:36.061Z,36.13
2019-05-22T02:42:15.524Z,35.70
2019-05-22T02:44:47.501Z,37.27
2019-05-22T02:47:21.640Z,34.70
2019-05-22T02:49:55.878Z,34.30
2019-05-22T02:52:27.343Z,35.20
2019-05-22T02:54:58.598Z,36.07
2019-05-22T02:57:31.771Z,35.13
2019-05-22T03:00:03.141Z,36.40
2019-05-22T03:02:37.608Z,37.67
2019-05-22T03:05:11.760Z,38.93
2019-05-22T03:07:46.556Z,39.57
2019-05-22T03:10:20.322Z,40.93
2019-05-22T03:12:51.681Z,41.50
2019-05-22T03:15:25.924Z,41.47
2019-05-22T03:18:05.165Z,43.93
2019-05-22T03:20:38.223Z,43.87
2019-05-22T03:23:37.677Z,42.97
2019-05-22T03:26:11.311Z,43.23
2019-05-22T03:28:43.970Z,42.40
2019-05-22T03:31:16.953Z,42.90
2019-05-22T03:33:48.513Z,43.97
2019-05-22T03:36:22.388Z,48.10
2019-05-22T03:38:55.311Z,46.90
2019-05-22T03:41:26.774Z,45.47
2019-05-22T03:43:59.371Z,43.50
2019-05-22T03:46:43.684Z,43.77
2019-05-22T03:49:29.910Z,43.50
2019-05-22T03:51:55.933Z,44.13
2019-05-22T03:54:27.237Z,42.13
2019-05-22T03:56:59.180Z,41.17
2019-05-22T03:59:30.954Z,41.70
2019-05-22T04:02:02.523Z,40.20
2019-05-22T04:04:40.446Z,40.03
2019-05-22T04:07:21.535Z,40.77
2019-05-22T04:09:55.380Z,39.77
2019-05-22T04:12:27.340Z,35.73
2019-05-22T04:14:59.449Z,36.60
2019-05-22T04:17:33.411Z,36.60
2019-05-22T04:20:06.375Z,32.07
2019-05-22T04:22:37.688Z,30.03
2019-05-22T04:25:10.230Z,31.40
2019-05-22T04:27:42.715Z,25.37
2019-05-22T04:30:15.660Z,25.63
2019-05-22T04:32:49.047Z,24.47
2019-05-22T04:35:21.175Z,23.80
2019-05-22T04:37:52.681Z,23.83
2019-05-22T04:40:58.383Z,24.03
2019-05-22T04:43:33.965Z,24.20
2019-05-22T04:46:09.897Z,23.53
2019-05-22T04:48:45.798Z,23.90
2019-05-22T04:51:31.075Z,21.67
2019-05-22T04:54:02.789Z,22.67
2019-05-22T04:56:33.953Z,22.57
2019-05-22T04:59:06.750Z,22.07
2019-05-22T05:01:38.729Z,21.53
2019-05-22T05:04:10.942Z,21.37
2019-05-22T05:07:02.231Z,23.57
2019-05-22T05:09:33.844Z,21.90
2019-05-22T05:12:06.792Z,20.80
2019-05-22T05:14:39.607Z,21.93
2019-05-22T05:17:11.665Z,22.40
2019-05-22T05:19:42.747Z,20.00
2019-05-22T05:22:20.916Z,20.00
2019-05-22T05:24:55.585Z,21.07
2019-05-22T05:27:26.017Z,21.03
2019-05-22T05:29:57.279Z,19.90
2019-05-22T05:32:28.991Z,20.97
2019-05-22T05:35:07.554Z,19.93
2019-05-22T05:37:39.676Z,19.20
2019-05-22T05:40:38.084Z,18.97
2019-05-22T05:43:12.144Z,18.97
2019-05-22T05:45:47.507Z,20.07
2019-05-22T05:48:28.244Z,19.23
2019-05-22T05:51:45.752Z,20.07
2019-05-22T05:54:19.081Z,18.80
2019-05-22T05:56:51.963Z,19.10
2019-05-22T05:59:26.729Z,18.97
2019-05-22T06:02:00.643Z,19.33
2019-05-22T06:04:38.680Z,18.13
2019-05-22T06:07:24.247Z,19.73
2019-05-22T06:10:38.223Z,19.67
2019-05-22T06:13:11.632Z,19.53
2019-05-22T06:17:02.143Z,19.77
2019-05-22T06:19:36.773Z,18.47
2019-05-22T06:22:09.285Z,18.60
2019-05-22T06:25:01.641Z,18.50
2019-05-22T06:27:55.827Z,18.60
2019-05-22T06:30:47.648Z,19.13
2019-05-22T06:33:37.585Z,18.10
2019-05-22T06:36:16.660Z,17.90
2019-05-22T06:38:56.519Z,18.47
2019-05-22T06:41:32.932Z,21.30
2019-05-22T06:44:37.714Z,18.80
2019-05-22T06:47:20.753Z,18.70
2019-05-22T06:49:54.080Z,16.83
2019-05-22T06:52:25.885Z,18.77
2019-05-22T06:54:58.611Z,17.53
2019-05-22T06:57:34.067Z,16.87
2019-05-22T07:00:20.175Z,16.23
2019-05-22T07:02:52.922Z,17.27
2019-05-22T07:05:25.130Z,18.27
2019-05-22T07:07:56.843Z,16.97
2019-05-22T07:10:29.672Z,19.73
2019-05-22T07:13:02.004Z,19.43
2019-05-22T07:15:48.437Z,19.47
2019-05-22T07:18:22.641Z,19.67
2019-05-22T07:20:56.734Z,18.10
2019-05-22T07:23:32.892Z,18.30
2019-05-22T07:26:06.048Z,18.60
2019-05-22T07:28:37.896Z,18.37
2019-05-22T07:31:09.529Z,17.77
2019-05-22T07:33:41.167Z,17.47
2019-05-22T07:36:17.125Z,15.80
2019-05-22T07:38:48.241Z,16.67
2019-05-22T07:41:19.712Z,16.27
2019-05-22T07:43:51.138Z,16.00
2019-05-22T07:46:23.075Z,15.63
2019-05-22T07:48:55.053Z,16.37
2019-05-22T07:51:28.710Z,15.90
2019-05-22T07:54:00.266Z,20.07
2019-05-22T07:56:32.486Z,15.27
2019-05-22T07:59:04.204Z,14.27
2019-05-22T08:01:35.997Z,14.47
2019-05-22T08:04:07.226Z,14.47
2019-05-22T08:06:38.564Z,13.60
2019-05-22T08:09:13.495Z,13.50
2019-05-22T08:11:45.317Z,13.20
2019-05-22T08:14:19.351Z,13.57
2019-05-22T08:16:51.732Z,12.80
2019-05-22T08:19:24.599Z,13.23
2019-05-22T08:22:06.665Z,13.53
2019-05-22T08:24:30.975Z,13.93
2019-05-22T08:27:02.540Z,15.63
2019-05-22T08:29:34.489Z,14.10
2019-05-22T08:32:06.778Z,14.50
2019-05-22T08:34:39.971Z,13.80
2019-05-22T08:37:17.946Z,13.73
2019-05-22T08:39:49.745Z,13.17
2019-05-22T08:42:23.633Z,15.33
2019-05-22T08:44:56.198Z,13.63
2019-05-22T08:47:28.365Z,13.37
2019-05-22T08:50:00.707Z,12.83
2019-05-22T08:52:32.678Z,13.97
2019-05-22T08:55:06.322Z,14.13
2019-05-22T08:57:38.278Z,13.90
2019-05-22T09:00:12.672Z,13.23
2019-05-22T09:02:44.766Z,14.03
2019-05-22T09:05:20.352Z,14.13
2019-05-22T09:07:49.892Z,14.03
2019-05-22T09:10:25.936Z,12.73
2019-05-22T09:12:56.469Z,14.20
2019-05-22T09:15:29.405Z,13.53
2019-05-22T09:18:01.162Z,13.53
2019-05-22T09:20:48.030Z,15.40
2019-05-22T09:23:07.753Z,14.20
2019-05-22T09:25:39.061Z,13.83
2019-05-22T09:28:10.276Z,14.50
2019-05-22T09:30:41.902Z,15.90
2019-05-22T09:33:14.851Z,14.70
2019-05-22T09:35:46.896Z,13.97
2019-05-22T09:38:18.346Z,14.83
2019-05-22T09:40:50.103Z,15.33
2019-05-22T09:43:21.978Z,14.40
2019-05-22T09:45:53.983Z,13.40
2019-05-22T09:48:25.719Z,13.45
2019-05-22T09:50:58.514Z,14.07
2019-05-22T09:53:31.348Z,13.28
2019-05-22T09:56:02.671Z,14.58
2019-05-22T09:58:34.323Z,15.08
2019-05-22T10:01:11.529Z,15.57
2019-05-22T10:03:41.154Z,15.70
2019-05-22T10:06:13.266Z,15.90
2019-05-22T10:08:44.648Z,18.07
2019-05-22T10:11:16.695Z,15.40
2019-05-22T10:13:48.202Z,15.90
2019-05-22T10:16:19.904Z,14.70
2019-05-22T10:18:53.302Z,16.05
2019-05-22T10:21:26.633Z,15.60
2019-05-22T10:23:58.743Z,16.82
2019-05-22T10:26:30.776Z,16.25
2019-05-22T10:29:02.132Z,16.60
2019-05-22T10:31:33.901Z,16.05
2019-05-22T10:34:05.772Z,13.20
2019-05-22T10:36:38.034Z,12.20
2019-05-22T10:39:09.669Z,12.25
2019-05-22T10:41:41.382Z,11.83
2019-05-22T10:44:12.985Z,12.93
2019-05-22T10:46:46.556Z,11.00
2019-05-22T10:49:17.988Z,11.65
2019-05-22T10:51:49.981Z,12.03
2019-05-22T10:54:21.957Z,13.10
2019-05-22T10:56:53.343Z,12.85
2019-05-22T10:59:26.275Z,13.78
2019-05-22T11:01:57.762Z,11.65
2019-05-22T11:04:30.908Z,12.45
2019-05-22T11:07:07.968Z,12.90
2019-05-22T11:09:40.459Z,13.28
2019-05-22T11:12:12.379Z,11.40
2019-05-22T11:14:45.236Z,11.85
2019-05-22T11:17:16.597Z,11.50
2019-05-22T11:19:48.553Z,11.57
2019-05-22T11:22:20.392Z,11.15
2019-05-22T11:24:51.908Z,11.20
2019-05-22T11:27:24.028Z,12.23
2019-05-22T11:29:55.561Z,10.17
2019-05-22T11:32:27.001Z,10.73
2019-05-22T11:34:59.037Z,10.67
2019-05-22T11:37:30.463Z,11.00
2019-05-22T11:40:02.138Z,9.63
2019-05-22T11:42:33.583Z,10.83
2019-05-22T11:45:05.598Z,11.38
2019-05-22T11:47:37.425Z,11.17
2019-05-22T11:50:10.317Z,8.78
2019-05-22T11:52:42.720Z,9.83
2019-05-22T11:55:16.530Z,9.53
2019-05-22T11:57:49.124Z,9.00
2019-05-22T12:00:22.271Z,9.43
2019-05-22T12:02:55.733Z,8.75
2019-05-22T12:05:27.550Z,9.65
2019-05-22T12:08:00.394Z,8.85
2019-05-22T12:10:31.929Z,9.60
2019-05-22T12:13:07.394Z,9.60
2019-05-22T12:15:39.330Z,7.90
2019-05-22T12:18:13.176Z,8.67
2019-05-22T12:20:44.915Z,10.07
2019-05-22T12:23:16.385Z,9.57
2019-05-22T12:25:47.733Z,9.38
2019-05-22T12:28:20.185Z,10.37
2019-05-22T12:30:52.373Z,9.10
2019-05-22T12:33:24.844Z,8.90
2019-05-22T12:35:56.416Z,8.83
2019-05-22T12:38:28.820Z,9.83
2019-05-22T12:41:01.322Z,8.67
2019-05-22T12:43:34.322Z,10.78
2019-05-22T12:46:05.733Z,9.65
2019-05-22T12:48:38.557Z,9.77
2019-05-22T12:51:09.951Z,10.78
2019-05-22T12:53:41.488Z,11.12
2019-05-22T12:56:14.311Z,11.40
2019-05-22T12:58:47.278Z,11.28
2019-05-22T13:01:20.878Z,12.07
2019-05-22T13:03:54.478Z,12.43
2019-05-22T13:06:26.135Z,11.33
2019-05-22T13:08:58.096Z,12.63
2019-05-22T13:11:29.589Z,12.33
2019-05-22T13:14:01.862Z,11.20
2019-05-22T13:16:34.599Z,11.95
2019-05-22T13:19:07.484Z,11.25
2019-05-22T13:21:40.528Z,11.88
2019-05-22T13:24:22.173Z,11.35
2019-05-22T13:26:55.112Z,9.40
2019-05-22T13:29:31.101Z,10.30
2019-05-22T13:32:03.094Z,10.27
2019-05-22T13:34:34.635Z,9.45
2019-05-22T13:37:06.554Z,9.33
2019-05-22T13:39:38.198Z,9.85
2019-05-22T13:42:13.441Z,9.58
2019-05-22T13:44:44.509Z,10.37
2019-05-22T13:47:16.536Z,8.90
2019-05-22T13:49:48.657Z,8.65
2019-05-22T13:52:20.121Z,9.23
2019-05-22T13:54:52.427Z,9.28
2019-05-22T13:57:25.041Z,8.05
2019-05-22T13:59:56.423Z,8.30
2019-05-22T14:02:27.917Z,7.95
2019-05-22T14:04:59.915Z,7.65
2019-05-22T14:07:31.363Z,8.10
2019-05-22T14:10:04.203Z,7.12
2019-05-22T14:12:35.891Z,8.05
2019-05-22T14:15:07.894Z,9.00
2019-05-22T14:17:39.387Z,8.20
2019-05-22T14:20:12.169Z,7.95
2019-05-22T14:22:43.592Z,7.40
2019-05-22T14:25:17.723Z,7.42
2019-05-22T14:27:49.075Z,7.55
2019-05-22T14:30:24.234Z,7.23
2019-05-22T14:32:57.691Z,8.08
2019-05-22T14:35:46.949Z,8.15
2019-05-22T14:38:07.473Z,7.65
2019-05-22T14:40:40.206Z,10.25
2019-05-22T14:43:12.398Z,6.85
2019-05-22T14:45:45.279Z,6.87
2019-05-22T14:48:16.649Z,6.72
2019-05-22T14:50:48.684Z,6.58
2019-05-22T14:53:20.571Z,6.60
2019-05-22T14:55:53.036Z,6.62
2019-05-22T14:58:24.864Z,7.45
2019-05-22T15:00:56.548Z,6.95
2019-05-22T15:03:29.121Z,7.83
2019-05-22T15:06:00.717Z,7.42
2019-05-22T15:08:32.303Z,7.47
2019-05-22T15:11:04.261Z,8.60
2019-05-22T15:13:36.134Z,7.93
2019-05-22T15:16:07.766Z,6.80
2019-05-22T15:18:39.592Z,8.20
2019-05-22T15:21:12.681Z,7.20
2019-05-22T15:23:44.131Z,7.25
2019-05-22T15:26:15.757Z,7.87
2019-05-22T15:28:47.337Z,8.00
2019-05-22T15:31:18.801Z,8.78
2019-05-22T15:33:50.402Z,8.58
2019-05-22T15:36:24.180Z,7.63
2019-05-22T15:38:56.140Z,8.90
2019-05-22T15:41:28.902Z,9.15
2019-05-22T15:44:00.580Z,9.58
2019-05-22T15:46:34.351Z,14.25
2019-05-22T15:49:08.874Z,9.60
2019-05-22T15:51:42.687Z,9.45
2019-05-22T15:54:17.341Z,8.98
2019-05-22T15:56:50.631Z,8.30
2019-05-22T15:59:24.267Z,8.63
2019-05-22T16:01:55.633Z,9.20
2019-05-22T16:04:28.482Z,10.33
2019-05-22T16:07:01.365Z,8.23
2019-05-22T16:09:33.470Z,8.48
2019-05-22T16:12:07.386Z,8.80
2019-05-22T16:14:39.345Z,8.50
2019-05-22T16:17:11.339Z,9.43
2019-05-22T16:19:43.697Z,8.05
2019-05-22T16:22:15.024Z,7.97
2019-05-22T16:24:46.348Z,8.93
2019-05-22T16:27:19.269Z,10.70
2019-05-22T16:29:50.963Z,8.13
2019-05-22T16:32:24.378Z,8.67
2019-05-22T16:34:56.682Z,8.10
2019-05-22T16:37:28.366Z,7.77
2019-05-22T16:39:59.922Z,9.10
2019-05-22T16:42:34.975Z,8.73
2019-05-22T16:45:07.650Z,8.10
2019-05-22T16:47:40.597Z,8.00
2019-05-22T16:50:13.999Z,8.93
2019-05-22T16:52:47.625Z,7.60
2019-05-22T16:55:21.330Z,8.67
2019-05-22T16:57:54.408Z,8.13
2019-05-22T17:00:28.308Z,8.23
2019-05-22T17:03:01.749Z,7.90
2019-05-22T17:05:34.000Z,7.60
2019-05-22T17:08:05.890Z,8.63
2019-05-22T17:10:37.948Z,7.17
2019-05-22T17:13:12.287Z,8.80
2019-05-22T17:15:44.578Z,8.70
2019-05-22T17:18:18.124Z,7.70
2019-05-22T17:20:50.453Z,8.87
2019-05-22T17:23:21.757Z,8.63
2019-05-22T17:25:53.017Z,8.00
2019-05-22T17:28:24.757Z,8.27
2019-05-22T17:30:58.397Z,7.93
2019-05-22T17:33:32.265Z,7.77
2019-05-22T17:36:05.869Z,9.30
2019-05-22T17:38:38.948Z,8.37
2019-05-22T17:41:11.774Z,8.47
2019-05-22T17:43:44.680Z,8.50
2019-05-22T17:46:18.234Z,8.30
2019-05-22T17:48:50.427Z,8.37
2019-05-22T17:51:23.274Z,8.97
2019-05-22T17:53:54.626Z,8.53
2019-05-22T17:56:26.852Z,9.23
2019-05-22T17:58:58.468Z,8.43
2019-05-22T18:01:30.963Z,8.60
2019-05-22T18:04:03.171Z,8.40
2019-05-22T18:06:35.275Z,8.63
2019-05-22T18:09:09.034Z,8.33
2019-05-22T18:11:40.913Z,8.20
2019-05-22T18:14:13.030Z,9.60
2019-05-22T18:16:45.052Z,8.57
2019-05-22T18:19:16.385Z,9.70
2019-05-22T18:21:48.092Z,8.37
2019-05-22T18:24:19.867Z,9.20
2019-05-22T18:26:51.209Z,8.33
2019-05-22T18:29:22.730Z,8.60
2019-05-22T18:31:54.980Z,9.10
2019-05-22T18:34:26.505Z,9.73
2019-05-22T18:36:57.763Z,9.17
2019-05-22T18:39:29.305Z,9.03
2019-05-22T18:42:00.847Z,8.43
2019-05-22T18:44:32.088Z,8.43
2019-05-22T18:47:04.240Z,9.73
2019-05-22T18:49:35.615Z,10.07
2019-05-22T18:52:08.475Z,9.33
2019-05-22T18:54:39.722Z,9.40
2019-05-22T18:57:10.861Z,9.87
2019-05-22T18:59:42.781Z,8.83
2019-05-22T19:02:14.693Z,10.03
2019-05-22T19:04:46.044Z,8.87
2019-05-22T19:07:17.475Z,10.67
2019-05-22T19:09:48.823Z,9.43
2019-05-22T19:12:20.390Z,10.10
2019-05-22T19:14:52.775Z,9.53
2019-05-22T19:17:24.223Z,11.57
2019-05-22T19:19:55.568Z,12.00
2019-05-22T19:22:27.115Z,11.60
2019-05-22T19:24:58.524Z,11.90
2019-05-22T19:27:30.263Z,9.37
2019-05-22T19:30:01.692Z,9.27
2019-05-22T19:32:33.323Z,9.50
2019-05-22T19:35:05.139Z,10.30
2019-05-22T19:37:36.343Z,9.60
2019-05-22T19:40:11.014Z,9.60
2019-05-22T19:42:43.719Z,9.47
2019-05-22T19:45:16.898Z,9.97
2019-05-22T19:47:54.442Z,9.80
2019-05-22T19:50:27.005Z,10.53
2019-05-22T19:53:15.719Z,10.43
2019-05-22T19:55:32.557Z,10.00
2019-05-22T19:58:04.252Z,8.83
2019-05-22T20:00:36.832Z,9.10
2019-05-22T20:03:08.820Z,9.50
2019-05-22T20:05:40.630Z,9.23
2019-05-22T20:08:12.501Z,10.33
2019-05-22T20:10:44.715Z,11.77
2019-05-22T20:13:17.277Z,11.90
2019-05-22T20:15:48.706Z,11.60
2019-05-22T20:18:20.618Z,12.40
2019-05-22T20:20:52.140Z,12.60
2019-05-22T20:23:35.161Z,13.10
2019-05-22T20:25:57.590Z,12.13
2019-05-22T20:28:29.531Z,12.50
2019-05-22T20:31:00.974Z,11.53
2019-05-22T20:33:32.417Z,11.40
2019-05-22T20:36:04.330Z,10.77
2019-05-22T20:38:35.853Z,11.50
2019-05-22T20:41:07.410Z,12.70
2019-05-22T20:43:40.692Z,12.27
2019-05-22T20:46:14.975Z,11.60
2019-05-22T20:48:46.942Z,12.17
2019-05-22T20:51:20.912Z,11.30
2019-05-22T20:53:54.954Z,12.20
2019-05-22T20:56:30.353Z,12.03
2019-05-22T20:59:02.285Z,12.10
2019-05-22T21:01:34.844Z,11.70
2019-05-22T21:04:11.231Z,11.73
2019-05-22T21:06:54.178Z,12.83
2019-05-22T21:09:26.016Z,11.67
2019-05-22T21:11:58.052Z,11.43
2019-05-22T21:14:30.265Z,12.37
2019-05-22T21:17:02.440Z,12.37
2019-05-22T21:19:35.548Z,13.80
2019-05-22T21:22:07.921Z,12.77
2019-05-22T21:24:39.962Z,12.63
2019-05-22T21:27:11.690Z,12.43
2019-05-22T21:29:43.676Z,11.93
2019-05-22T21:32:16.064Z,13.77
2019-05-22T21:34:47.723Z,12.80
2019-05-22T21:37:19.966Z,13.07
2019-05-22T21:39:52.216Z,13.20
2019-05-22T21:42:24.996Z,12.63
2019-05-22T21:44:57.488Z,13.80
2019-05-22T21:47:29.062Z,13.40
2019-05-22T21:50:00.715Z,14.20
2019-05-22T21:52:32.796Z,14.40
2019-05-22T21:55:05.469Z,14.93
2019-05-22T21:57:38.378Z,13.80
2019-05-22T22:00:16.842Z,15.00
2019-05-22T22:02:51.069Z,13.57
2019-05-22T22:05:22.368Z,13.40
2019-05-22T22:07:53.496Z,13.23
2019-05-22T22:10:25.375Z,12.97
2019-05-22T22:12:58.066Z,13.50
2019-05-22T22:15:30.519Z,13.73
2019-05-22T22:18:02.256Z,13.67
2019-05-22T22:20:33.731Z,12.93
2019-05-22T22:23:05.431Z,13.00
2019-05-22T22:25:37.044Z,13.63
2019-05-22T22:28:08.480Z,14.43
2019-05-22T22:30:48.560Z,13.00
2019-05-22T22:33:25.247Z,13.67
2019-05-22T22:35:57.623Z,14.00
2019-05-22T22:38:28.898Z,13.33
2019-05-22T22:41:00.947Z,13.20
2019-05-22T22:43:37.373Z,13.93
2019-05-22T22:46:20.947Z,14.20
2019-05-22T22:48:53.364Z,14.00
2019-05-22T22:51:27.488Z,14.13
2019-05-22T22:54:00.615Z,14.33
2019-05-22T22:56:32.023Z,12.43
2019-05-22T22:59:06.376Z,13.43
2019-05-22T23:01:42.056Z,15.53
2019-05-22T23:04:14.132Z,14.53
2019-05-22T23:06:46.244Z,14.17
2019-05-22T23:09:18.857Z,13.60
2019-05-22T23:11:51.722Z,14.27
2019-05-22T23:14:24.243Z,15.10
2019-05-22T23:16:56.241Z,14.20
2019-05-22T23:19:35.874Z,15.43
2019-05-22T23:22:07.875Z,14.47
2019-05-22T23:24:40.786Z,15.23
2019-05-22T23:27:15.940Z,15.23
2019-05-22T23:29:48.276Z,14.27
2019-05-22T23:32:21.243Z,14.77
2019-05-22T23:34:54.171Z,15.10
2019-05-22T23:37:26.291Z,14.87
2019-05-22T23:39:59.300Z,14.90
2019-05-22T23:42:38.349Z,13.70
2019-05-22T23:45:16.160Z,15.00
2019-05-22T23:48:06.189Z,14.50
2019-05-22T23:50:39.136Z,15.23
2019-05-22T23:53:12.432Z,14.27
2019-05-22T23:55:45.964Z,15.63
2019-05-22T23:58:20.208Z,14.93
